createdAt,value
2023-05-14T00:01:16.674Z,26.19
2023-05-14T00:03:43.635Z,25.82
2023-05-14T00:06:11.133Z,25.88
2023-05-14T00:08:37.724Z,25.46
2023-05-14T00:11:04.680Z,25.83
2023-05-14T00:13:31.238Z,25.89
2023-05-14T00:15:57.823Z,25.74
2023-05-14T00:18:24.853Z,26.09
2023-05-14T00:20:54.599Z,25.93
2023-05-14T00:23:22.058Z,26.22
2023-05-14T00:25:49.050Z,26.17
2023-05-14T00:28:15.919Z,26.07
2023-05-14T00:30:42.452Z,26.20
2023-05-14T00:33:09.144Z,26.07
2023-05-14T00:35:35.833Z,26.02
2023-05-14T00:38:03.750Z,26.17
2023-05-14T00:40:30.411Z,26.41
2023-05-14T00:42:57.801Z,26.39
2023-05-14T00:45:25.633Z,26.65
2023-05-14T00:47:53.927Z,27.21
2023-05-14T00:50:21.430Z,27.31
2023-05-14T00:52:49.009Z,26.91
2023-05-14T00:55:17.209Z,26.90
2023-05-14T00:57:44.548Z,26.97
2023-05-14T01:00:12.075Z,26.96
2023-05-14T01:02:38.909Z,26.94
2023-05-14T01:05:06.266Z,27.28
2023-05-14T01:07:44.995Z,27.04
2023-05-14T01:10:24.775Z,27.09
2023-05-14T01:13:18.285Z,27.08
2023-05-14T01:15:47.282Z,26.91
2023-05-14T01:18:18.054Z,27.10
2023-05-14T01:20:45.520Z,27.15
2023-05-14T01:23:12.109Z,27.15
2023-05-14T01:25:39.358Z,27.66
2023-05-14T01:28:19.357Z,27.36
2023-05-14T01:30:57.219Z,27.32
2023-05-14T01:33:27.759Z,27.61
2023-05-14T01:35:55.696Z,28.12
2023-05-14T01:38:24.151Z,28.09
2023-05-14T01:40:51.614Z,27.81
2023-05-14T01:43:19.017Z,27.83
2023-05-14T01:45:46.108Z,27.78
2023-05-14T01:48:12.850Z,27.67
2023-05-14T01:50:39.474Z,27.89
2023-05-14T01:53:06.405Z,27.93
2023-05-14T01:55:32.970Z,27.72
2023-05-14T01:57:59.773Z,27.80
2023-05-14T02:00:27.116Z,27.86
2023-05-14T02:02:54.259Z,27.74
2023-05-14T02:05:23.048Z,27.71
2023-05-14T02:07:49.754Z,27.91
2023-05-14T02:10:16.289Z,27.96
2023-05-14T02:12:42.938Z,27.96
2023-05-14T02:15:11.012Z,27.55
2023-05-14T02:17:38.103Z,28.21
2023-05-14T02:20:05.625Z,28.17
2023-05-14T02:22:45.487Z,27.69
2023-05-14T02:25:12.493Z,28.14
2023-05-14T02:27:39.052Z,28.33
2023-05-14T02:30:06.130Z,27.83
2023-05-14T02:32:33.426Z,27.67
2023-05-14T02:35:00.121Z,28.18
2023-05-14T02:37:26.894Z,27.92
2023-05-14T02:39:53.944Z,28.17
2023-05-14T02:42:22.628Z,28.49
2023-05-14T02:44:49.301Z,28.62
2023-05-14T02:47:16.023Z,28.65
2023-05-14T02:49:42.532Z,28.47
2023-05-14T02:52:09.052Z,28.42
2023-05-14T02:54:35.916Z,28.36
2023-05-14T02:57:02.593Z,28.79
2023-05-14T02:59:29.758Z,29.04
2023-05-14T03:01:58.060Z,29.69
2023-05-14T03:04:25.010Z,29.71
2023-05-14T03:06:51.556Z,29.40
2023-05-14T03:09:18.106Z,29.56
2023-05-14T03:11:44.681Z,29.31
2023-05-14T03:14:11.299Z,29.71
2023-05-14T03:16:38.349Z,29.68
2023-05-14T03:19:04.947Z,29.24
2023-05-14T03:21:32.113Z,29.54
2023-05-14T03:23:58.718Z,29.45
2023-05-14T03:26:25.700Z,29.97
2023-05-14T03:28:52.808Z,29.45
2023-05-14T03:31:19.367Z,29.73
2023-05-14T03:33:45.969Z,29.25
2023-05-14T03:36:12.474Z,29.94
2023-05-14T03:38:39.693Z,29.32
2023-05-14T03:41:06.303Z,29.66
2023-05-14T03:43:32.826Z,29.28
2023-05-14T03:46:00.148Z,29.26
2023-05-14T03:48:27.103Z,29.10
2023-05-14T03:50:53.811Z,29.15
2023-05-14T03:53:20.796Z,29.83
2023-05-14T03:55:47.418Z,29.82
2023-05-14T03:58:14.429Z,29.57
2023-05-14T04:00:44.203Z,29.54
2023-05-14T04:03:11.729Z,29.66
2023-05-14T04:05:38.401Z,29.69
2023-05-14T04:08:05.846Z,29.71
2023-05-14T04:10:32.810Z,29.71
2023-05-14T04:13:00.485Z,29.38
2023-05-14T04:15:31.548Z,29.23
2023-05-14T04:17:58.141Z,29.54
2023-05-14T04:20:24.954Z,29.04
2023-05-14T04:22:51.714Z,29.01
2023-05-14T04:25:18.528Z,29.25
2023-05-14T04:27:45.403Z,29.53
2023-05-14T04:30:12.475Z,29.34
2023-05-14T04:32:39.225Z,29.25
2023-05-14T04:35:06.634Z,29.30
2023-05-14T04:37:33.215Z,29.42
2023-05-14T04:39:59.808Z,29.31
2023-05-14T04:42:26.421Z,29.87
2023-05-14T04:44:53.021Z,29.79
2023-05-14T04:47:21.045Z,29.94
2023-05-14T04:49:47.894Z,29.77
2023-05-14T04:52:14.553Z,30.28
2023-05-14T04:54:41.570Z,30.37
2023-05-14T04:57:08.146Z,29.96
2023-05-14T04:59:34.750Z,30.12
2023-05-14T05:02:01.575Z,29.60
2023-05-14T05:04:28.133Z,29.93
2023-05-14T05:06:54.687Z,29.47
2023-05-14T05:09:21.201Z,29.21
2023-05-14T05:11:47.722Z,29.59
2023-05-14T05:14:14.268Z,30.16
2023-05-14T05:16:41.109Z,30.05
2023-05-14T05:19:07.728Z,29.04
2023-05-14T05:21:35.102Z,27.49
2023-05-14T05:24:01.966Z,25.42
2023-05-14T05:26:28.852Z,24.03
2023-05-14T05:28:55.488Z,22.48
2023-05-14T05:31:22.127Z,21.69
2023-05-14T05:33:48.847Z,21.19
2023-05-14T05:36:15.481Z,20.60
2023-05-14T05:38:42.379Z,20.41
2023-05-14T05:41:09.429Z,20.23
2023-05-14T05:43:35.945Z,20.19
2023-05-14T05:46:02.478Z,19.64
2023-05-14T05:48:29.058Z,19.66
2023-05-14T05:50:55.768Z,19.93
2023-05-14T05:53:24.918Z,20.67
2023-05-14T05:55:51.663Z,20.03
2023-05-14T05:58:19.073Z,19.57
2023-05-14T06:00:47.029Z,19.54
2023-05-14T06:03:14.771Z,19.14
2023-05-14T06:05:42.029Z,18.99
2023-05-14T06:08:08.670Z,18.43
2023-05-14T06:10:36.266Z,18.53
2023-05-14T06:13:03.024Z,17.93
2023-05-14T06:15:29.565Z,18.42
2023-05-14T06:17:56.173Z,18.45
2023-05-14T06:20:23.105Z,18.77
2023-05-14T06:22:49.883Z,18.42
2023-05-14T06:25:16.490Z,17.90
2023-05-14T06:27:43.548Z,17.70
2023-05-14T06:30:11.251Z,17.00
2023-05-14T06:32:37.905Z,17.68
2023-05-14T06:35:05.115Z,17.93
2023-05-14T06:37:31.791Z,17.12
2023-05-14T06:39:58.696Z,17.98
2023-05-14T06:42:26.338Z,17.89
2023-05-14T06:44:52.908Z,17.83
2023-05-14T06:47:19.447Z,17.69
2023-05-14T06:49:46.792Z,17.48
2023-05-14T06:52:13.585Z,17.52
2023-05-14T06:54:40.137Z,18.03
2023-05-14T06:57:06.795Z,18.07
2023-05-14T06:59:33.575Z,17.38
2023-05-14T07:02:00.159Z,17.81
2023-05-14T07:04:26.825Z,17.80
2023-05-14T07:06:53.433Z,18.04
2023-05-14T07:09:19.981Z,17.63
2023-05-14T07:11:46.519Z,17.88
2023-05-14T07:14:13.070Z,17.73
2023-05-14T07:16:40.219Z,17.63
2023-05-14T07:19:06.886Z,18.69
2023-05-14T07:21:33.521Z,17.71
2023-05-14T07:24:01.107Z,18.22
2023-05-14T07:26:27.640Z,19.21
2023-05-14T07:28:54.224Z,19.36
2023-05-14T07:31:20.815Z,19.26
2023-05-14T07:33:47.878Z,19.31
2023-05-14T07:36:14.482Z,20.48
2023-05-14T07:38:41.548Z,19.43
2023-05-14T07:41:08.055Z,19.07
2023-05-14T07:43:34.595Z,20.16
2023-05-14T07:46:01.107Z,19.79
2023-05-14T07:48:27.718Z,20.10
2023-05-14T07:50:54.733Z,20.28
2023-05-14T07:53:21.947Z,20.83
2023-05-14T07:55:48.775Z,20.38
2023-05-14T07:58:16.077Z,20.90
2023-05-14T08:00:42.598Z,20.29
2023-05-14T08:03:09.238Z,20.98
2023-05-14T08:05:35.904Z,20.03
2023-05-14T08:08:02.655Z,20.67
2023-05-14T08:10:29.663Z,20.03
2023-05-14T08:12:56.282Z,19.38
2023-05-14T08:15:24.582Z,19.70
2023-05-14T08:17:52.996Z,20.35
2023-05-14T08:20:19.498Z,20.88
2023-05-14T08:22:46.918Z,21.55
2023-05-14T08:25:13.615Z,21.94
2023-05-14T08:27:40.216Z,22.46
2023-05-14T08:30:07.280Z,21.71
2023-05-14T08:32:33.952Z,21.61
2023-05-14T08:35:00.644Z,22.22
2023-05-14T08:37:27.342Z,21.63
2023-05-14T08:39:53.842Z,20.93
2023-05-14T08:42:21.999Z,20.58
2023-05-14T08:44:53.130Z,21.00
2023-05-14T08:47:22.328Z,21.24
2023-05-14T08:49:54.759Z,21.38
2023-05-14T08:52:23.122Z,22.28
2023-05-14T08:54:52.681Z,22.20
2023-05-14T08:57:20.903Z,21.53
2023-05-14T08:59:48.750Z,22.46
2023-05-14T09:02:17.385Z,21.32
2023-05-14T09:04:44.815Z,21.87
2023-05-14T09:07:11.721Z,22.22
2023-05-14T09:09:38.621Z,23.49
2023-05-14T09:12:06.175Z,22.75
2023-05-14T09:14:33.283Z,23.77
2023-05-14T09:16:59.912Z,23.30
2023-05-14T09:19:26.898Z,23.75
2023-05-14T09:21:57.816Z,23.18
2023-05-14T09:24:31.548Z,22.99
2023-05-14T09:26:58.856Z,23.08
2023-05-14T09:29:30.152Z,22.61
2023-05-14T09:31:58.391Z,22.17
2023-05-14T09:34:26.116Z,22.05
2023-05-14T09:37:03.718Z,22.50
2023-05-14T09:39:31.099Z,21.93
2023-05-14T09:41:57.784Z,22.11
2023-05-14T09:44:25.247Z,21.87
2023-05-14T09:46:53.713Z,21.27
2023-05-14T09:49:21.025Z,21.86
2023-05-14T09:51:49.174Z,21.79
2023-05-14T09:54:16.526Z,21.72
2023-05-14T09:56:43.908Z,21.08
2023-05-14T09:59:10.870Z,21.53
2023-05-14T10:01:38.321Z,20.92
2023-05-14T10:04:07.674Z,20.87
2023-05-14T10:06:38.102Z,20.35
2023-05-14T10:09:09.685Z,20.49
2023-05-14T10:11:38.423Z,20.76
2023-05-14T10:14:18.234Z,18.91
2023-05-14T10:16:50.877Z,19.90
2023-05-14T10:19:19.958Z,20.52
2023-05-14T10:21:55.649Z,21.07
2023-05-14T10:24:24.313Z,20.39
2023-05-14T10:26:51.510Z,20.37
2023-05-14T10:29:18.045Z,20.69
2023-05-14T10:31:47.203Z,21.57
2023-05-14T10:34:46.217Z,20.66
2023-05-14T10:37:15.519Z,21.03
2023-05-14T10:39:43.215Z,21.31
2023-05-14T10:42:16.427Z,21.21
2023-05-14T10:44:48.408Z,21.95
2023-05-14T10:47:17.080Z,21.48
2023-05-14T10:49:45.748Z,20.23
2023-05-14T10:52:12.428Z,19.99
2023-05-14T10:54:39.638Z,19.83
2023-05-14T10:57:11.508Z,20.09
2023-05-14T10:59:41.783Z,20.37
2023-05-14T11:02:19.638Z,20.48
2023-05-14T11:04:54.423Z,21.28
2023-05-14T11:07:25.285Z,20.43
2023-05-14T11:09:53.220Z,21.17
2023-05-14T11:12:21.268Z,21.81
2023-05-14T11:14:47.857Z,20.91
2023-05-14T11:17:15.051Z,20.96
2023-05-14T11:19:43.789Z,21.21
2023-05-14T11:22:13.558Z,21.75
2023-05-14T11:24:40.883Z,21.74
2023-05-14T11:27:09.211Z,21.83
2023-05-14T11:29:36.780Z,21.20
2023-05-14T11:32:06.271Z,21.10
2023-05-14T11:34:34.616Z,21.51
2023-05-14T11:37:06.824Z,21.44
2023-05-14T11:39:36.238Z,21.38
2023-05-14T11:42:04.717Z,20.36
2023-05-14T11:44:32.607Z,20.33
2023-05-14T11:46:59.420Z,21.39
2023-05-14T11:49:31.706Z,20.58
2023-05-14T11:51:59.441Z,19.85
2023-05-14T11:54:29.832Z,19.85
2023-05-14T11:56:57.504Z,20.27
2023-05-14T11:59:27.850Z,19.95
2023-05-14T12:01:55.951Z,19.87
2023-05-14T12:04:22.914Z,19.36
2023-05-14T12:06:50.819Z,20.78
2023-05-14T12:09:21.217Z,20.76
2023-05-14T12:11:49.026Z,20.50
2023-05-14T12:14:17.371Z,21.72
2023-05-14T12:16:45.254Z,26.18
2023-05-14T12:19:15.234Z,27.67
2023-05-14T12:21:47.632Z,31.44
2023-05-14T12:24:17.745Z,29.36
2023-05-14T12:26:49.462Z,28.28
2023-05-14T12:29:16.795Z,30.08
2023-05-14T12:31:48.249Z,27.49
2023-05-14T12:34:15.917Z,27.57
2023-05-14T12:36:43.373Z,27.69
2023-05-14T12:39:11.066Z,27.50
2023-05-14T12:41:37.740Z,26.30
2023-05-14T12:44:05.249Z,26.60
2023-05-14T12:46:33.102Z,26.14
2023-05-14T12:48:59.778Z,25.71
2023-05-14T12:51:26.472Z,24.06
2023-05-14T12:53:54.187Z,25.99
2023-05-14T12:56:21.384Z,25.37
2023-05-14T12:58:48.170Z,24.89
2023-05-14T13:01:14.848Z,24.88
2023-05-14T13:03:41.595Z,25.12
2023-05-14T13:06:08.235Z,25.06
2023-05-14T13:08:35.315Z,24.32
2023-05-14T13:11:01.932Z,24.07
2023-05-14T13:13:28.621Z,24.72
2023-05-14T13:15:55.499Z,24.24
2023-05-14T13:18:22.271Z,24.52
2023-05-14T13:20:49.004Z,24.58
2023-05-14T13:23:16.081Z,23.96
2023-05-14T13:25:42.610Z,22.79
2023-05-14T13:28:09.620Z,23.50
2023-05-14T13:30:36.319Z,23.47
2023-05-14T13:33:03.115Z,23.15
2023-05-14T13:35:29.801Z,22.82
2023-05-14T13:37:56.883Z,23.12
2023-05-14T13:40:23.589Z,22.21
2023-05-14T13:42:50.269Z,22.18
2023-05-14T13:45:17.007Z,22.42
2023-05-14T13:47:44.346Z,21.10
2023-05-14T13:50:10.987Z,21.13
2023-05-14T13:52:38.945Z,21.21
2023-05-14T13:55:06.556Z,21.98
2023-05-14T13:57:33.278Z,21.95
2023-05-14T14:00:01.195Z,20.71
2023-05-14T14:02:33.536Z,20.87
2023-05-14T14:05:01.165Z,21.05
2023-05-14T14:07:28.067Z,19.39
2023-05-14T14:09:54.806Z,21.37
2023-05-14T14:12:21.580Z,19.80
2023-05-14T14:14:48.293Z,20.00
2023-05-14T14:17:14.987Z,19.29
2023-05-14T14:19:41.650Z,18.75
2023-05-14T14:22:08.340Z,19.88
2023-05-14T14:24:35.456Z,20.37
2023-05-14T14:27:02.328Z,19.69
2023-05-14T14:29:31.015Z,19.55
2023-05-14T14:31:57.752Z,19.42
2023-05-14T14:34:24.911Z,19.98
2023-05-14T14:36:51.553Z,20.30
2023-05-14T14:39:18.723Z,20.86
2023-05-14T14:41:45.507Z,20.72
2023-05-14T14:44:12.232Z,20.00
2023-05-14T14:46:38.992Z,19.76
2023-05-14T14:49:05.744Z,20.21
2023-05-14T14:51:33.004Z,19.76
2023-05-14T14:54:00.142Z,20.77
2023-05-14T14:56:27.231Z,20.99
2023-05-14T14:58:53.989Z,20.95
2023-05-14T15:01:22.699Z,20.29
2023-05-14T15:03:50.885Z,20.38
2023-05-14T15:06:17.597Z,19.94
2023-05-14T15:08:44.368Z,19.64
2023-05-14T15:11:14.109Z,21.26
2023-05-14T15:13:41.938Z,20.79
2023-05-14T15:16:08.886Z,21.94
2023-05-14T15:18:35.671Z,22.84
2023-05-14T15:21:02.376Z,21.70
2023-05-14T15:23:29.050Z,22.25
2023-05-14T15:25:56.196Z,22.98
2023-05-14T15:28:22.903Z,22.47
2023-05-14T15:30:49.596Z,22.31
2023-05-14T15:33:19.462Z,22.36
2023-05-14T15:35:46.369Z,21.33
2023-05-14T15:38:13.080Z,22.39
2023-05-14T15:40:41.155Z,22.63
2023-05-14T15:43:07.907Z,21.40
2023-05-14T15:45:34.560Z,21.99
2023-05-14T15:48:01.397Z,21.53
2023-05-14T15:50:28.288Z,21.67
2023-05-14T15:52:54.985Z,22.34
2023-05-14T15:55:21.725Z,22.49
2023-05-14T15:57:48.514Z,22.79
2023-05-14T16:00:16.286Z,22.48
2023-05-14T16:02:43.426Z,23.07
2023-05-14T16:05:10.295Z,23.89
2023-05-14T16:07:37.402Z,24.90
2023-05-14T16:10:04.851Z,23.82
2023-05-14T16:12:31.760Z,22.79
2023-05-14T16:14:58.713Z,24.16
2023-05-14T16:17:27.718Z,23.64
2023-05-14T16:19:56.336Z,24.12
2023-05-14T16:22:23.372Z,24.05
2023-05-14T16:24:50.070Z,23.03
2023-05-14T16:27:19.010Z,23.07
2023-05-14T16:29:46.155Z,24.22
2023-05-14T16:32:13.001Z,23.96
2023-05-14T16:34:39.772Z,23.72
2023-05-14T16:37:06.839Z,23.99
2023-05-14T16:39:33.511Z,24.77
2023-05-14T16:42:00.185Z,24.67
2023-05-14T16:44:28.042Z,23.57
2023-05-14T16:47:24.044Z,23.08
2023-05-14T16:49:50.901Z,23.13
2023-05-14T16:52:17.630Z,22.23
2023-05-14T16:54:44.269Z,22.33
2023-05-14T16:57:11.302Z,22.83
2023-05-14T16:59:38.323Z,23.21
2023-05-14T17:02:04.984Z,22.47
2023-05-14T17:04:33.318Z,22.32
2023-05-14T17:07:01.384Z,22.02
2023-05-14T17:09:28.065Z,22.57
2023-05-14T17:11:54.790Z,21.77
2023-05-14T17:14:22.033Z,21.95
2023-05-14T17:16:48.761Z,21.52
2023-05-14T17:19:15.688Z,21.37
2023-05-14T17:21:42.972Z,21.68
2023-05-14T17:24:10.211Z,21.87
2023-05-14T17:26:37.730Z,22.34
2023-05-14T17:29:04.865Z,22.89
2023-05-14T17:31:31.552Z,23.31
2023-05-14T17:33:58.830Z,23.85
2023-05-14T17:36:25.813Z,23.18
2023-05-14T17:38:52.534Z,23.55
2023-05-14T17:41:19.720Z,23.19
2023-05-14T17:43:47.051Z,23.86
2023-05-14T17:46:14.036Z,23.23
2023-05-14T17:48:40.812Z,23.77
2023-05-14T17:51:07.917Z,23.84
2023-05-14T17:53:34.611Z,23.50
2023-05-14T17:56:01.487Z,23.12
2023-05-14T17:58:28.549Z,23.66
2023-05-14T18:00:55.547Z,23.36
2023-05-14T18:03:22.387Z,23.03
2023-05-14T18:05:49.205Z,23.14
2023-05-14T18:08:15.903Z,24.10
2023-05-14T18:10:42.929Z,23.77
2023-05-14T18:13:10.032Z,23.65
2023-05-14T18:15:36.838Z,23.62
2023-05-14T18:18:03.896Z,23.73
2023-05-14T18:20:31.175Z,23.45
2023-05-14T18:22:59.120Z,23.80
2023-05-14T18:25:26.233Z,24.16
2023-05-14T18:27:53.817Z,23.26
2023-05-14T18:30:20.607Z,23.54
2023-05-14T18:32:47.482Z,22.54
2023-05-14T18:35:14.628Z,22.56
2023-05-14T18:37:41.729Z,22.92
2023-05-14T18:40:09.254Z,22.74
2023-05-14T18:42:35.957Z,23.70
2023-05-14T18:45:04.029Z,23.79
2023-05-14T18:47:32.586Z,24.55
2023-05-14T18:50:01.619Z,26.43
2023-05-14T18:52:28.704Z,26.02
2023-05-14T18:54:55.670Z,26.05
2023-05-14T18:57:22.506Z,25.39
2023-05-14T18:59:49.703Z,25.90
2023-05-14T19:02:16.587Z,26.12
2023-05-14T19:04:52.338Z,25.98
2023-05-14T19:07:20.866Z,26.30
2023-05-14T19:09:48.049Z,25.82
2023-05-14T19:12:14.870Z,25.43
2023-05-14T19:14:42.002Z,25.37
2023-05-14T19:17:08.713Z,25.68
2023-05-14T19:19:36.540Z,25.54
2023-05-14T19:22:03.709Z,25.58
2023-05-14T19:24:30.839Z,26.18
2023-05-14T19:26:57.713Z,26.07
2023-05-14T19:29:30.158Z,26.28
2023-05-14T19:31:57.001Z,25.98
2023-05-14T19:34:23.797Z,26.58
2023-05-14T19:36:50.736Z,26.78
2023-05-14T19:39:17.425Z,26.92
2023-05-14T19:41:44.198Z,26.90
2023-05-14T19:44:11.082Z,26.60
2023-05-14T19:46:37.926Z,26.92
2023-05-14T19:49:04.965Z,27.02
2023-05-14T19:51:31.691Z,26.85
2023-05-14T19:53:58.381Z,26.82
2023-05-14T19:56:27.135Z,26.50
2023-05-14T19:58:54.263Z,26.74
2023-05-14T20:01:21.116Z,26.79
2023-05-14T20:03:48.129Z,26.63
2023-05-14T20:06:14.870Z,26.58
2023-05-14T20:08:41.785Z,26.56
2023-05-14T20:11:08.446Z,26.52
2023-05-14T20:13:36.405Z,26.33
2023-05-14T20:16:03.322Z,26.96
2023-05-14T20:18:30.160Z,26.92
2023-05-14T20:20:57.182Z,26.20
2023-05-14T20:23:24.039Z,26.67
2023-05-14T20:25:51.575Z,26.25
2023-05-14T20:28:18.280Z,26.50
2023-05-14T20:30:45.074Z,27.00
2023-05-14T20:33:13.317Z,26.87
2023-05-14T20:35:43.714Z,26.71
2023-05-14T20:38:12.545Z,26.78
2023-05-14T20:40:39.711Z,27.21
2023-05-14T20:43:06.512Z,27.12
2023-05-14T20:45:34.988Z,27.22
2023-05-14T20:48:01.881Z,26.80
2023-05-14T20:50:28.715Z,26.75
2023-05-14T20:52:55.581Z,26.81
2023-05-14T20:55:22.343Z,26.91
2023-05-14T20:57:49.638Z,26.78
2023-05-14T21:00:16.731Z,26.96
2023-05-14T21:02:43.580Z,27.04
2023-05-14T21:05:10.980Z,26.83
2023-05-14T21:07:39.246Z,26.54
2023-05-14T21:10:07.675Z,26.15
2023-05-14T21:12:34.218Z,26.51
2023-05-14T21:15:00.764Z,26.25
2023-05-14T21:17:27.735Z,27.05
2023-05-14T21:19:54.310Z,26.96
2023-05-14T21:22:22.015Z,27.06
2023-05-14T21:24:50.315Z,26.75
2023-05-14T21:27:16.993Z,27.09
2023-05-14T21:29:46.171Z,27.51
2023-05-14T21:32:13.100Z,27.09
2023-05-14T21:34:39.694Z,27.64
2023-05-14T21:37:06.741Z,28.45
2023-05-14T21:39:33.298Z,28.21
2023-05-14T21:41:59.841Z,28.47
2023-05-14T21:44:26.404Z,28.90
2023-05-14T21:46:52.963Z,29.06
2023-05-14T21:49:19.510Z,28.72
2023-05-14T21:51:46.621Z,28.64
2023-05-14T21:54:14.002Z,28.37
2023-05-14T21:56:40.735Z,28.90
2023-05-14T21:59:07.291Z,28.68
2023-05-14T22:01:38.575Z,29.22
2023-05-14T22:04:12.608Z,28.56
2023-05-14T22:06:39.410Z,28.35
2023-05-14T22:09:05.998Z,28.25
2023-05-14T22:11:32.560Z,28.07
2023-05-14T22:13:59.085Z,28.18
2023-05-14T22:16:26.786Z,28.04
2023-05-14T22:18:53.942Z,28.37
2023-05-14T22:21:20.620Z,28.47
2023-05-14T22:23:47.913Z,28.14
2023-05-14T22:26:14.528Z,28.31
2023-05-14T22:28:42.918Z,28.13
2023-05-14T22:31:10.369Z,28.74
2023-05-14T22:33:36.947Z,28.84
2023-05-14T22:36:04.170Z,29.50
2023-05-14T22:38:30.735Z,29.05
2023-05-14T22:40:57.288Z,29.10
2023-05-14T22:43:23.890Z,29.27
2023-05-14T22:45:50.765Z,29.37
2023-05-14T22:48:17.764Z,29.56
2023-05-14T22:50:44.610Z,29.18
2023-05-14T22:53:11.171Z,29.40
2023-05-14T22:55:38.210Z,30.11
2023-05-14T22:58:05.519Z,29.60
2023-05-14T23:00:32.055Z,29.88
2023-05-14T23:02:58.706Z,29.59
2023-05-14T23:05:25.801Z,29.78
2023-05-14T23:07:53.663Z,29.54
2023-05-14T23:10:20.227Z,29.50
2023-05-14T23:12:47.558Z,29.64
2023-05-14T23:15:14.206Z,29.23
2023-05-14T23:17:40.766Z,29.48
2023-05-14T23:20:10.594Z,29.39
2023-05-14T23:22:37.112Z,29.34
2023-05-14T23:25:04.286Z,29.51
2023-05-14T23:27:31.058Z,29.13
2023-05-14T23:29:57.614Z,29.17
2023-05-14T23:32:24.210Z,29.02
2023-05-14T23:34:51.037Z,29.17
2023-05-14T23:37:17.932Z,29.12
2023-05-14T23:39:44.583Z,29.35
2023-05-14T23:42:11.145Z,29.11
2023-05-14T23:44:37.714Z,29.46
2023-05-14T23:47:05.465Z,29.51
2023-05-14T23:49:32.153Z,29.49
2023-05-14T23:51:58.739Z,29.63
2023-05-14T23:54:25.415Z,29.55
2023-05-14T23:56:52.557Z,29.20
2023-05-14T23:59:19.124Z,29.97
